Time;durP1;ratioP1;P1;durP2;ratioP2;P2;SDS_P1;SDS_P2;PMS_P1;PMS_P2;Temp;Humidity;BMP_temperature;BMP_pressure;BME280_temperature;BME280_humidity;BME280_pressure;Samples;Min_cycle;Max_cycle;Signal;HPM_P1;HPM_P2
2023/01/12 00:02:26;;;;;;;16.62;6.50;;;;;;;-6.27;73.41;101424.75;1745491;82;21206;-62
2023/01/12 00:04:56;;;;;;;23.87;6.28;;;;;;;-6.26;73.44;101420.28;1814569;79;21158;-60
2023/01/12 00:07:27;;;;;;;24.37;6.85;;;;;;;-6.24;73.42;101428.62;1814764;79;21123;-59
2023/01/12 00:09:56;;;;;;;14.80;6.47;;;;;;;-6.24;73.43;101425.95;1814641;79;21138;-60
2023/01/12 00:12:25;;;;;;;19.12;6.40;;;;;;;-6.23;73.40;101436.16;1745463;82;21135;-59
2023/01/12 00:14:53;;;;;;;16.75;6.60;;;;;;;-6.24;73.36;101429.95;1814839;79;21146;-59
2023/01/12 00:17:22;;;;;;;19.35;6.80;;;;;;;-6.24;73.36;101440.63;1745518;82;21131;-62
2023/01/12 00:19:53;;;;;;;14.87;6.08;;;;;;;-6.23;73.41;101443.69;1815020;79;21592;-60
2023/01/12 00:22:23;;;;;;;16.95;6.10;;;;;;;-6.21;73.37;101448.95;1814870;79;21177;-60
2023/01/12 00:24:53;;;;;;;15.80;5.65;;;;;;;-6.21;73.36;101447.16;1716591;82;21738;-60
2023/01/12 00:27:22;;;;;;;19.60;6.00;;;;;;;-6.24;73.29;101459.29;1812661;79;21112;-60
2023/01/12 00:29:52;;;;;;;20.85;5.83;;;;;;;-6.24;73.29;101458.42;1798993;79;21151;-60
2023/01/12 00:32:22;;;;;;;20.55;5.80;;;;;;;-6.22;73.32;101449.89;1718457;83;21163;-59
2023/01/12 00:34:52;;;;;;;14.78;5.78;;;;;;;-6.20;73.20;101453.36;1770003;80;21174;-59
2023/01/12 00:37:20;;;;;;;15.03;5.72;;;;;;;-6.21;73.17;101453.82;1718514;83;21151;-60
2023/01/12 00:39:49;;;;;;;16.75;6.03;;;;;;;-6.18;73.08;101458.16;1799048;80;21527;-59
2023/01/12 00:45:21;;;;;;;18.27;6.83;;;;;;;-6.21;72.86;101452.48;1799090;80;21116;-60
2023/01/12 00:47:50;;;;;;;21.95;6.90;;;;;;;-6.18;72.73;101460.83;1798972;80;21115;-59
2023/01/12 00:50:19;;;;;;;20.00;6.97;;;;;;;-6.18;72.61;101459.03;1799175;80;21131;-59
2023/01/12 00:52:48;;;;;;;21.27;6.92;;;;;;;-6.22;72.42;101456.55;1700540;83;21619;-60
2023/01/12 00:55:20;;;;;;;19.67;7.03;;;;;;;-6.25;72.44;101442.89;1770668;80;21139;-59
2023/01/12 00:57:49;;;;;;;20.90;6.92;;;;;;;-6.24;72.37;101444.62;1799184;80;21558;-59
2023/01/12 01:00:20;;;;;;;18.17;6.50;;;;;;;-6.24;72.37;101438.42;1798951;80;21198;-60
2023/01/12 01:02:50;;;;;;;17.02;6.03;;;;;;;-6.24;72.26;101435.28;1718626;83;21127;-58
2023/01/12 01:05:19;;;;;;;15.70;6.30;;;;;;;-6.27;72.23;101436.75;1799236;80;21115;-60
2023/01/12 01:07:49;;;;;;;21.87;6.37;;;;;;;-6.26;72.30;101438.48;1798909;80;21091;-60
2023/01/12 01:10:19;;;;;;;19.80;6.15;;;;;;;-6.23;72.30;101438.82;1799132;80;21111;-59
2023/01/12 01:12:48;;;;;;;15.88;6.30;;;;;;;-6.20;72.26;101441.36;1718474;83;21143;-60
2023/01/12 01:15:18;;;;;;;24.18;6.60;;;;;;;-6.21;72.08;101442.29;1799012;80;21155;-59
2023/01/12 01:17:48;;;;;;;15.40;5.67;;;;;;;-6.24;72.10;101439.28;1718613;83;21138;-60
2023/01/12 01:20:17;;;;;;;19.77;6.47;;;;;;;-6.22;72.11;101442.75;1798838;79;21151;-59
2023/01/12 01:22:46;;;;;;;20.27;6.17;;;;;;;-6.22;72.07;101449.42;1718603;83;21182;-60
2023/01/12 01:25:15;;;;;;;21.27;6.67;;;;;;;-6.21;72.08;101445.82;1798867;80;21563;-61
2023/01/12 01:27:44;;;;;;;15.75;5.35;;;;;;;-6.22;72.01;101449.89;1799077;80;21593;-59
2023/01/12 01:30:13;;;;;;;18.15;6.33;;;;;;;-6.21;72.09;101452.48;1718526;83;21127;-59
2023/01/12 01:32:43;;;;;;;16.77;6.28;;;;;;;-6.19;72.06;101463.09;1798853;80;21163;-60
2023/01/12 01:35:11;;;;;;;17.67;5.97;;;;;;;-6.19;72.08;101466.63;1718473;83;21135;-60
2023/01/12 01:37:40;;;;;;;14.85;5.90;;;;;;;-6.21;72.04;101469.83;1799106;80;21577;-60
2023/01/12 01:40:11;;;;;;;14.18;5.87;;;;;;;-6.22;72.00;101464.09;1718696;83;21146;-58
2023/01/12 01:42:41;;;;;;;19.27;5.87;;;;;;;-6.24;72.15;101461.95;1770101;80;21143;-58
2023/01/12 01:45:11;;;;;;;14.40;5.30;;;;;;;-6.24;72.27;101466.42;1798833;80;21155;-59
2023/01/12 01:47:45;;;;;;;11.25;5.62;;;;;;;-6.26;72.41;101472.28;1718671;83;21116;-58
2023/01/12 01:50:31;;;;;;;13.90;5.30;;;;;;;-6.28;72.58;101473.69;1798893;80;21546;-60
2023/01/12 01:53:04;;;;;;;13.13;5.17;;;;;;;-6.28;72.76;101473.69;1718504;83;21687;-59
2023/01/12 01:55:47;;;;;;;16.25;5.90;;;;;;;-6.27;72.96;101480.75;1798909;79;21590;-59
2023/01/12 01:58:20;;;;;;;15.53;5.28;;;;;;;-6.23;73.07;101486.36;1718640;83;21103;-57
2023/01/12 02:00:51;;;;;;;14.60;5.33;;;;;;;-6.24;73.06;101479.29;1770880;80;21087;-59
2023/01/12 02:03:20;;;;;;;14.60;4.83;;;;;;;-6.24;73.17;101481.95;1798926;79;21097;-60
2023/01/12 02:05:50;;;;;;;17.45;5.87;;;;;;;-6.22;73.33;101481.42;1718416;83;21111;-60
2023/01/12 02:08:41;;;;;;;14.80;5.65;;;;;;;-6.22;73.25;101475.23;1799188;80;21139;-59
2023/01/12 02:17:05;;;;;;;10.65;5.05;;;;;;;-6.31;73.66;101480.95;1799187;79;21096;-60
2023/01/12 02:20:06;;;;;;;14.75;6.03;;;;;;;-6.29;73.83;101483.95;1718820;83;21123;-59
2023/01/12 02:23:03;;;;;;;15.15;5.40;;;;;;;-6.23;73.90;101477.49;1798838;80;21134;-59
2023/01/12 02:26:01;;;;;;;14.60;5.20;;;;;;;-6.21;73.95;101481.83;1761382;80;21672;-58
2023/01/12 02:28:56;;;;;;;14.63;5.33;;;;;;;-6.22;73.94;101476.09;1799081;79;21104;-58
2023/01/12 02:31:51;;;;;;;17.62;5.55;;;;;;;-6.21;74.20;101472.96;1798182;80;21111;-59
2023/01/12 02:34:53;;;;;;;13.72;5.97;;;;;;;-6.18;74.37;101475.03;1718554;83;21167;-59
2023/01/12 02:37:59;;;;;;;13.70;5.30;;;;;;;-6.15;74.47;101472.23;1799153;80;21110;-60
2023/01/12 02:41:07;;;;;;;11.95;4.90;;;;;;;-6.15;74.46;101465.56;1798907;80;21099;-58
2023/01/12 02:43:38;;;;;;;12.93;5.20;;;;;;;-6.16;74.62;101458.50;1718358;83;21183;-59
2023/01/12 02:46:16;;;;;;;15.25;5.65;;;;;;;-6.14;74.78;101457.09;1799028;80;21554;-60
2023/01/12 02:48:58;;;;;;;12.88;5.03;;;;;;;-6.09;74.92;101463.09;1798881;80;21103;-59
2023/01/12 02:51:35;;;;;;;13.35;4.85;;;;;;;-6.05;74.93;101462.50;1716336;83;21530;-59
2023/01/12 02:54:11;;;;;;;9.13;3.77;;;;;;;-6.04;75.04;101460.23;1799263;80;21131;-59
2023/01/12 02:56:53;;;;;;;12.07;4.95;;;;;;;-6.01;75.12;101460.97;1746642;80;21158;-59
2023/01/12 02:59:33;;;;;;;15.23;5.53;;;;;;;-6.02;75.21;101453.03;1798893;79;21123;-60
2023/01/12 03:02:06;;;;;;;18.35;5.20;;;;;;;-5.99;75.37;101451.56;1799035;80;21410;-59
2023/01/12 03:04:35;;;;;;;11.73;4.55;;;;;;;-5.95;75.45;101454.50;1798847;80;21182;-59
2023/01/12 03:07:15;;;;;;;9.43;4.42;;;;;;;-5.91;75.51;101457.43;1718550;83;21128;-59
2023/01/12 03:09:48;;;;;;;14.87;5.25;;;;;;;-5.89;75.50;101460.91;1798877;80;21597;-60
2023/01/12 03:12:30;;;;;;;13.50;4.90;;;;;;;-5.88;75.52;101459.94;1798853;80;21138;-60
2023/01/12 03:15:01;;;;;;;10.13;4.40;;;;;;;-5.86;75.61;101448.72;1718255;83;21413;-59
2023/01/12 03:17:41;;;;;;;13.08;5.58;;;;;;;-5.83;75.64;101445.95;1798926;80;21546;-60
2023/01/12 03:20:19;;;;;;;13.08;5.00;;;;;;;-5.83;75.67;101447.29;1770421;80;21147;-59
2023/01/12 03:22:49;;;;;;;11.78;4.85;;;;;;;-5.80;75.77;101448.02;1798792;79;21139;-60
2023/01/12 03:25:18;;;;;;;11.80;4.95;;;;;;;-5.76;75.87;101436.73;1798932;79;21163;-59
2023/01/12 03:27:51;;;;;;;16.20;5.10;;;;;;;-5.77;75.87;101421.66;1718642;83;21123;-63
2023/01/12 03:30:31;;;;;;;11.93;5.12;;;;;;;-5.81;75.92;101413.39;1805480;79;21091;-60
2023/01/12 03:33:06;;;;;;;12.13;4.97;;;;;;;-5.81;76.01;101416.06;1806181;79;21611;-59
2023/01/12 03:36:00;;;;;;;10.50;4.78;;;;;;;-5.86;76.15;101404.70;1737631;82;21127;-60
2023/01/12 03:38:47;;;;;;;13.85;5.10;;;;;;;-5.87;76.35;101399.83;1737929;82;21543;-59
2023/01/12 03:41:41;;;;;;;9.95;4.50;;;;;;;-5.81;76.56;101400.91;1806386;79;21127;-58
2023/01/12 03:44:15;;;;;;;10.05;4.47;;;;;;;-5.76;76.75;101406.05;1737705;82;21566;-58
2023/01/12 03:46:51;;;;;;;13.15;4.42;;;;;;;-5.72;76.88;101405.44;1806258;79;21237;-59
2023/01/12 03:49:36;;;;;;;12.58;4.80;;;;;;;-5.69;77.05;101405.30;1737761;82;21222;-59
2023/01/12 03:52:07;;;;;;;11.30;4.27;;;;;;;-5.71;77.17;101400.03;1806506;79;21143;-60
2023/01/12 03:54:38;;;;;;;14.10;4.83;;;;;;;-5.71;77.34;101404.50;1737799;82;21933;-60
2023/01/12 03:57:07;;;;;;;16.25;4.83;;;;;;;-5.69;77.59;101395.48;1806474;79;21146;-59
2023/01/12 03:59:38;;;;;;;12.65;4.72;;;;;;;-5.65;77.82;101390.41;1717319;82;21535;-59
2023/01/12 04:02:07;;;;;;;9.58;4.28;;;;;;;-5.63;78.01;101398.34;1806372;79;21178;-60
2023/01/12 04:04:36;;;;;;;10.95;4.35;;;;;;;-5.61;78.18;101395.14;1737618;82;21136;-60
2023/01/12 04:07:04;;;;;;;12.93;5.17;;;;;;;-5.59;78.44;101391.46;1806256;79;21111;-60
2023/01/12 04:09:34;;;;;;;11.93;4.17;;;;;;;-5.55;78.70;101383.70;1737844;82;21135;-59
2023/01/12 04:12:09;;;;;;;10.98;4.10;;;;;;;-5.53;78.93;101383.17;1737896;82;21163;-59
2023/01/12 04:14:43;;;;;;;14.60;5.55;;;;;;;-5.50;79.20;101383.02;1806318;79;21511;-60
2023/01/12 04:17:14;;;;;;;12.98;5.28;;;;;;;-5.48;79.38;101380.28;1806277;79;21166;-58
2023/01/12 04:19:44;;;;;;;11.22;5.12;;;;;;;-5.46;79.58;101381.94;1737682;82;21162;-60
2023/01/12 04:25:07;;;;;;;15.90;5.20;;;;;;;-5.45;80.10;101384.14;1737732;82;21187;-59
2023/01/12 04:27:48;;;;;;;13.47;5.30;;;;;;;-5.42;80.43;101378.66;1806397;79;21616;-59
2023/01/12 04:30:19;;;;;;;15.28;6.15;;;;;;;-5.40;80.61;101373.25;1805075;79;21621;-59
2023/01/12 04:32:49;;;;;;;15.13;6.25;;;;;;;-5.39;80.80;101369.17;1783878;79;21079;-59
2023/01/12 04:35:18;;;;;;;18.75;6.80;;;;;;;-5.42;80.97;101367.98;1737690;82;21127;-58
2023/01/12 04:37:47;;;;;;;17.87;6.03;;;;;;;-5.42;81.27;101370.18;1806228;79;21596;-60
2023/01/12 04:40:17;;;;;;;13.08;5.83;;;;;;;-5.45;81.60;101358.30;1717288;82;21435;-59
2023/01/12 04:43:00;;;;;;;16.17;5.95;;;;;;;-5.45;81.60;101358.30;1784353;79;21106;-59
2023/01/12 04:45:33;;;;;;;12.93;5.60;;;;;;;-5.45;82.06;101360.11;1806774;79;21147;-60
2023/01/12 04:48:05;;;;;;;17.42;6.12;;;;;;;-5.48;82.31;101353.11;1737953;82;21213;-60
2023/01/12 04:50:35;;;;;;;16.77;6.08;;;;;;;-5.52;82.55;101357.33;1806439;79;21087;-60
2023/01/12 04:53:06;;;;;;;14.30;5.50;;;;;;;-5.54;82.88;101356.07;1737840;82;21099;-59
2023/01/12 04:55:36;;;;;;;15.70;6.10;;;;;;;-5.52;83.21;101356.86;1806256;79;21175;-59
2023/01/12 04:58:05;;;;;;;17.25;6.97;;;;;;;-5.47;83.47;101353.98;1737863;82;21261;-60
2023/01/12 05:00:34;;;;;;;17.67;6.22;;;;;;;-5.50;83.64;101358.99;1806235;79;21606;-58
2023/01/12 05:03:03;;;;;;;14.83;6.55;;;;;;;-5.48;83.96;101359.78;1784004;79;21526;-59
2023/01/12 05:05:32;;;;;;;14.30;6.20;;;;;;;-5.45;84.19;101348.96;1737718;82;21269;-59
2023/01/12 05:10:58;;;;;;;18.12;5.90;;;;;;;-5.37;84.55;101355.74;1806247;79;21170;-58
2023/01/12 05:13:29;;;;;;;15.08;5.70;;;;;;;-5.35;84.71;101371.22;1784037;79;21608;-60
2023/01/12 05:16:14;;;;;;;18.48;6.80;;;;;;;-5.32;84.93;101377.75;1737654;82;21119;-58
2023/01/12 05:18:45;;;;;;;10.93;5.37;;;;;;;-5.29;85.04;101377.14;1784244;79;21150;-60
2023/01/12 05:21:16;;;;;;;26.37;9.48;;;;;;;-5.24;85.29;101369.77;1806293;79;22311;-60
2023/01/12 05:23:45;;;;;;;18.27;7.42;;;;;;;-5.20;85.33;101371.39;1716975;82;21637;-60
2023/01/12 05:26:16;;;;;;;20.70;7.50;;;;;;;-5.18;85.49;101363.30;1806201;79;21570;-60
2023/01/12 05:28:48;;;;;;;20.40;7.95;;;;;;;-5.16;85.53;101359.62;1737520;82;21103;-60
2023/01/12 05:31:18;;;;;;;17.98;7.83;;;;;;;-5.19;85.69;101357.56;1813961;79;21206;-60
2023/01/12 05:33:49;;;;;;;18.77;7.45;;;;;;;-5.19;85.69;101357.56;1784054;79;21111;-60
2023/01/12 05:36:19;;;;;;;16.90;7.08;;;;;;;-5.27;85.97;101355.70;1745522;82;21099;-59
2023/01/12 05:38:48;;;;;;;17.95;8.05;;;;;;;-5.25;86.22;101352.48;1814969;79;21114;-60
2023/01/12 05:41:20;;;;;;;19.10;8.05;;;;;;;-5.25;86.25;101359.16;1745888;82;21601;-61
2023/01/12 05:43:51;;;;;;;17.60;7.92;;;;;;;-5.25;86.25;101359.16;1814738;79;21146;-60
2023/01/12 05:46:25;;;;;;;20.37;7.90;;;;;;;-5.23;86.54;101351.94;1814918;79;21118;-60
2023/01/12 05:48:55;;;;;;;18.02;8.05;;;;;;;-5.23;86.54;101351.94;1814846;79;21153;-60
2023/01/12 05:51:26;;;;;;;24.70;8.40;;;;;;;-5.17;86.81;101357.02;1815023;79;21115;-61
2023/01/12 05:53:55;;;;;;;23.27;8.70;;;;;;;-5.13;86.89;101365.28;1716655;82;21095;-61
2023/01/12 05:56:26;;;;;;;26.20;8.23;;;;;;;-5.11;86.92;101361.59;1716546;83;21111;-59
2023/01/12 05:58:58;;;;;;;22.20;8.05;;;;;;;-5.07;87.12;101367.66;1692757;83;21154;-59
2023/01/12 06:01:28;;;;;;;23.20;8.23;;;;;;;-5.01;87.33;101353.99;1632848;87;21249;-59
2023/01/12 06:03:59;;;;;;;29.32;9.68;;;;;;;-5.01;87.33;101353.99;1654245;87;21265;-60
2023/01/12 06:06:30;;;;;;;22.85;8.80;;;;;;;-4.98;87.26;101365.00;1654476;87;21165;-59
2023/01/12 06:09:00;;;;;;;23.45;7.92;;;;;;;-4.98;87.26;101365.00;1653910;87;21171;-60
2023/01/12 06:14:17;;;;;;;13.43;5.28;;;;;;;-4.90;87.46;101371.70;1689605;82;21151;-59
2023/01/12 06:16:46;;;;;;;21.42;7.33;;;;;;;-4.92;87.38;101368.23;1814914;79;21107;-59
2023/01/12 06:19:15;;;;;;;14.53;6.08;;;;;;;-4.93;87.58;101357.62;1745711;82;21559;-62
2023/01/12 06:21:47;;;;;;;14.07;5.80;;;;;;;-4.93;87.58;101357.62;1814987;79;21087;-58
2023/01/12 06:24:16;;;;;;;15.03;5.97;;;;;;;-4.89;87.75;101353.86;1745444;82;21158;-60
2023/01/12 06:26:45;;;;;;;19.55;6.12;;;;;;;-4.86;87.85;101348.36;1814787;79;21673;-60
2023/01/12 06:29:14;;;;;;;12.88;6.40;;;;;;;-4.85;87.94;101348.75;1814790;79;21631;-60
2023/01/12 06:31:45;;;;;;;18.23;6.62;;;;;;;-4.85;88.03;101345.61;1697996;82;21556;-60
2023/01/12 06:34:14;;;;;;;16.80;6.40;;;;;;;-4.85;88.34;101356.77;1780103;80;21514;-60
2023/01/12 06:36:45;;;;;;;15.83;7.33;;;;;;;-4.85;88.34;101356.77;1714041;82;21111;-60
2023/01/12 06:39:16;;;;;;;15.72;6.15;;;;;;;-4.83;88.34;101346.41;1717077;83;21123;-62
2023/01/12 06:44:35;;;;;;;16.90;5.95;;;;;;;-4.78;88.52;101355.52;1685637;85;21643;-61
2023/01/12 06:47:05;;;;;;;18.60;6.92;;;;;;;-4.76;88.63;101358.13;1685304;85;21177;-61
2023/01/12 06:49:34;;;;;;;15.70;6.47;;;;;;;-4.72;88.74;101355.69;1685378;85;21174;-62
2023/01/12 06:52:05;;;;;;;18.27;7.00;;;;;;;-4.66;88.83;101346.02;1685146;85;21574;-60
2023/01/12 06:54:37;;;;;;;25.85;9.30;;;;;;;-4.64;88.81;101332.97;1663127;85;21170;-61
2023/01/12 06:57:05;;;;;;;33.35;11.75;;;;;;;-4.62;88.79;101343.59;1685121;85;21173;-59
2023/01/12 06:59:35;;;;;;;26.93;9.60;;;;;;;-4.63;88.82;101337.84;1685534;85;21138;-60
2023/01/12 07:02:09;;;;;;;24.50;9.10;;;;;;;-4.63;88.82;101337.84;1708610;80;21103;-60
2023/01/12 07:04:39;;;;;;;33.23;11.65;;;;;;;-4.59;88.94;101338.95;1750820;80;21111;-60
2023/01/12 07:07:11;;;;;;;25.00;8.68;;;;;;;-4.59;88.94;101338.95;1750614;80;21158;-61
2023/01/12 07:09:41;;;;;;;18.67;7.65;;;;;;;-4.57;88.96;101337.06;1743095;82;21676;-61
2023/01/12 07:12:10;;;;;;;18.95;7.80;;;;;;;-4.51;89.13;101354.16;1716845;83;21174;-60
2023/01/12 07:14:39;;;;;;;18.98;7.87;;;;;;;-4.53;89.14;101362.73;1742781;82;21194;-61
2023/01/12 07:17:08;;;;;;;18.27;8.05;;;;;;;-4.53;89.14;101362.73;1779898;80;21562;-61
2023/01/12 07:19:38;;;;;;;18.35;8.20;;;;;;;-4.48;89.34;101361.16;1780143;80;21260;-61
2023/01/12 07:22:11;;;;;;;22.22;8.98;;;;;;;-4.48;89.34;101361.16;1743270;82;21127;-61
2023/01/12 07:24:41;;;;;;;20.65;8.05;;;;;;;-4.48;89.39;101363.84;1716733;83;21127;-62
2023/01/12 07:27:10;;;;;;;24.02;8.40;;;;;;;-4.48;89.47;101360.69;1716788;83;21146;-59
2023/01/12 07:29:40;;;;;;;26.68;9.13;;;;;;;-4.48;89.50;101359.83;1743020;82;21112;-61
2023/01/12 07:32:11;;;;;;;24.75;8.70;;;;;;;-4.48;89.51;101357.16;1766589;81;21516;-60
2023/01/12 07:34:40;;;;;;;28.38;10.40;;;;;;;-4.47;89.61;101347.71;1806104;79;21103;-61
2023/01/12 07:37:09;;;;;;;24.67;9.28;;;;;;;-4.45;89.60;101350.31;1655668;86;21597;-61
2023/01/12 07:39:40;;;;;;;21.75;9.03;;;;;;;-4.45;89.68;101344.95;1683457;85;21131;-61
2023/01/12 07:42:22;;;;;;;26.87;10.10;;;;;;;-4.43;89.70;101348.42;1656239;86;21574;-61
2023/01/12 07:44:52;;;;;;;23.83;9.88;;;;;;;-4.42;89.75;101346.14;1718143;83;21170;-61
2023/01/12 07:47:21;;;;;;;26.68;10.10;;;;;;;-4.41;89.80;101341.66;1718509;83;21706;-60
2023/01/12 07:49:53;;;;;;;26.33;9.80;;;;;;;-4.40;89.79;101344.25;1718431;83;21158;-61
2023/01/12 07:52:21;;;;;;;26.33;11.48;;;;;;;-4.40;89.87;101342.91;1718117;83;21640;-58
2023/01/12 07:54:52;;;;;;;28.73;10.50;;;;;;;-4.39;89.93;101345.98;1718423;83;21625;-58
2023/01/12 07:57:23;;;;;;;26.87;9.78;;;;;;;-4.35;90.02;101348.89;1718158;83;21554;-58
2023/01/12 07:59:52;;;;;;;31.68;11.78;;;;;;;-4.35;89.98;101342.67;1718372;83;21122;-60
2023/01/12 08:02:22;;;;;;;27.80;11.00;;;;;;;-4.34;89.99;101338.58;1716539;82;21575;-59
2023/01/12 08:04:53;;;;;;;39.75;12.55;;;;;;;-4.34;90.08;101343.93;1806301;79;21153;-58
2023/01/12 08:07:25;;;;;;;37.42;13.48;;;;;;;-4.31;90.15;101338.42;1768317;81;21111;-58
2023/01/12 08:09:55;;;;;;;40.00;15.08;;;;;;;-4.27;90.16;101341.33;1737478;82;21120;-58
2023/01/12 08:12:29;;;;;;;32.30;11.93;;;;;;;-4.23;90.21;101339.36;1806217;79;21115;-59
2023/01/12 08:15:02;;;;;;;32.28;12.90;;;;;;;-4.20;90.26;101339.20;1768075;81;21127;-57
2023/01/12 08:17:36;;;;;;;34.55;13.38;;;;;;;-4.18;90.25;101335.97;1737538;82;21182;-59
2023/01/12 08:20:14;;;;;;;40.70;15.53;;;;;;;-4.16;90.27;101330.92;1717425;82;21239;-58
2023/01/12 08:22:46;;;;;;;41.45;14.85;;;;;;;-4.13;90.37;101341.08;1806197;79;21122;-60
2023/01/12 08:25:19;;;;;;;45.63;14.28;;;;;;;-4.10;90.37;101340.91;1805996;79;21150;-59
2023/01/12 08:27:50;;;;;;;40.75;13.45;;;;;;;-4.09;90.36;101343.51;1767894;81;21115;-59
2023/01/12 08:30:20;;;;;;;43.30;15.03;;;;;;;-4.07;90.30;101338.94;1717096;82;21571;-59
2023/01/12 08:32:50;;;;;;;45.38;13.93;;;;;;;-4.06;90.38;101327.77;1806096;79;21170;-61
2023/01/12 08:35:21;;;;;;;46.70;15.03;;;;;;;-4.04;90.39;101333.89;1806389;79;21526;-59
2023/01/12 08:37:52;;;;;;;42.93;14.50;;;;;;;-4.02;90.48;101330.19;1716936;82;21155;-59
2023/01/12 08:40:23;;;;;;;40.48;14.05;;;;;;;-4.01;90.49;101329.24;1784459;79;21194;-58
2023/01/12 08:42:53;;;;;;;43.48;15.45;;;;;;;-3.96;90.57;101326.32;1768065;81;21219;-60
2023/01/12 08:45:24;;;;;;;45.73;14.80;;;;;;;-3.95;90.54;101322.70;1629266;88;21194;-57
2023/01/12 09:47:55;;;;;;;28.85;9.63;;;;;;;-3.66;90.04;101310.43;1726264;83;21596;-60
2023/01/12 09:50:30;;;;;;;32.33;9.10;;;;;;;-3.65;90.08;101318.85;1726604;83;21142;-60
2023/01/12 09:53:19;;;;;;;29.45;10.20;;;;;;;-3.65;90.01;101321.05;1726409;83;21561;-61
2023/01/12 09:56:10;;;;;;;30.10;9.58;;;;;;;-3.65;90.01;101321.53;1664700;85;21131;-58
2023/01/12 09:59:22;;;;;;;31.05;11.03;;;;;;;-3.67;89.93;101312.24;1691593;85;21268;-61
2023/01/12 10:01:53;;;;;;;28.20;11.08;;;;;;;-3.71;89.89;101303.98;1691656;85;21542;-61
2023/01/12 10:04:25;;;;;;;29.85;11.08;;;;;;;-3.66;89.97;101305.94;1691651;85;21170;-59
2023/01/12 10:06:56;;;;;;;29.20;9.98;;;;;;;-3.66;89.88;101313.11;1691561;85;21170;-59
2023/01/12 10:09:26;;;;;;;30.68;9.83;;;;;;;-3.65;89.95;101313.50;1691861;84;21186;-59
2023/01/12 10:12:22;;;;;;;24.95;9.50;;;;;;;-3.65;89.98;101315.70;1605349;89;21254;-60
2023/01/12 10:15:01;;;;;;;21.77;9.33;;;;;;;-3.65;90.01;101309.01;1636684;88;21207;-61
2023/01/12 10:17:43;;;;;;;25.12;9.95;;;;;;;-3.60;90.02;101315.45;1636902;88;21153;-61
2023/01/12 10:20:33;;;;;;;30.40;10.93;;;;;;;-3.61;89.94;101309.22;1636333;88;21251;-60
2023/01/12 10:23:11;;;;;;;34.23;12.40;;;;;;;-3.62;89.93;101291.91;1636453;88;21165;-60
2023/01/12 10:25:53;;;;;;;32.17;11.35;;;;;;;-3.61;90.00;101287.80;1636567;88;21113;-60
2023/01/12 10:28:34;;;;;;;31.10;10.38;;;;;;;-3.59;90.06;101281.88;1637024;88;21137;-59
2023/01/12 10:31:08;;;;;;;28.62;10.40;;;;;;;-3.58;90.05;101284.95;1690908;83;21160;-60
2023/01/12 10:34:09;;;;;;;25.82;9.70;;;;;;;-3.58;90.00;101274.23;1666982;84;21157;-58
2023/01/12 10:36:47;;;;;;;26.27;9.55;;;;;;;-3.55;89.97;101275.88;1664067;85;21174;-58
2023/01/12 10:39:34;;;;;;;23.02;8.88;;;;;;;-3.51;89.96;101272.08;1670225;85;21161;-59
2023/01/12 10:45:20;;;;;;;28.27;10.68;;;;;;;-3.56;89.48;101275.02;1691228;85;21170;-58
2023/01/12 10:47:53;;;;;;;29.92;10.90;;;;;;;-3.58;89.48;101283.61;1669448;85;21250;-59
2023/01/12 10:50:30;;;;;;;34.08;11.75;;;;;;;-3.61;89.40;101279.77;1669591;83;21170;-57
2023/01/12 10:53:09;;;;;;;38.45;13.28;;;;;;;-3.61;89.46;101269.05;1691391;83;21138;-60
2023/01/12 10:55:40;;;;;;;29.45;10.08;;;;;;;-3.59;89.46;101269.83;1691065;85;21134;-60
2023/01/12 10:58:27;;;;;;;40.30;12.33;;;;;;;-3.62;89.30;101263.30;1691124;85;21174;-59
2023/01/12 11:00:59;;;;;;;32.45;11.63;;;;;;;-3.61;89.36;101266.84;1691237;84;21206;-60
2023/01/12 11:03:41;;;;;;;30.37;11.12;;;;;;;-3.59;89.45;101261.80;1691255;85;21122;-58
2023/01/12 11:06:25;;;;;;;33.53;11.70;;;;;;;-3.58;89.44;101267.54;1691073;84;21186;-58
2023/01/12 11:08:56;;;;;;;35.73;12.23;;;;;;;-3.55;89.43;101271.86;1691208;85;21244;-58
2023/01/12 11:11:30;;;;;;;38.20;11.95;;;;;;;-3.56;89.30;101279.03;1670430;85;21186;-58
2023/01/12 11:14:03;;;;;;;32.48;11.65;;;;;;;-3.57;89.21;101269.74;1637578;87;21170;-58
2023/01/12 11:16:36;;;;;;;35.78;12.73;;;;;;;-3.59;89.08;101277.00;1668440;86;21133;-59
2023/01/12 11:19:35;;;;;;;30.65;11.18;;;;;;;-3.62;89.02;101263.78;1668257;86;21204;-58
2023/01/12 11:22:27;;;;;;;29.55;10.53;;;;;;;-3.65;88.96;101267.50;1668116;86;21580;-59
2023/01/12 11:25:09;;;;;;;34.60;10.93;;;;;;;-3.69;88.94;101267.75;1667480;86;21130;-59
2023/01/12 11:27:56;;;;;;;32.05;11.78;;;;;;;-3.72;88.87;101265.25;1646267;86;21133;-60
2023/01/12 11:30:45;;;;;;;41.83;12.43;;;;;;;-3.72;89.10;101260.75;1668303;86;21238;-60
2023/01/12 11:33:29;;;;;;;38.15;11.75;;;;;;;-3.71;89.18;101256.27;1720327;81;21196;-60
2023/01/12 11:36:11;;;;;;;31.70;11.70;;;;;;;-3.67;89.38;101251.98;1722732;83;21135;-60
2023/01/12 11:38:49;;;;;;;35.58;11.68;;;;;;;-3.65;89.36;101253.23;1723198;83;21170;-59
2023/01/12 11:43:47;;;;;;;35.68;12.43;;;;;;;-3.66;89.37;101247.50;1722149;83;21601;-60
2023/01/12 11:45:03;;;;;;;37.78;12.90;;;;;;;-3.65;89.41;101247.41;1726047;83;21601;-61
2023/01/12 11:47:51;;;;;;;31.23;12.43;;;;;;;-3.61;89.44;101250.30;1726025;83;21130;-61
2023/01/12 11:50:39;;;;;;;35.00;12.65;;;;;;;-3.57;89.47;101251.86;1697361;83;21669;-60
2023/01/12 11:53:24;;;;;;;33.18;12.93;;;;;;;-3.52;89.53;101255.61;1723233;83;21166;-62
2023/01/12 11:56:18;;;;;;;31.52;12.13;;;;;;;-3.48;89.46;101250.95;1695792;83;21162;-61
2023/01/12 11:59:11;;;;;;;32.23;12.20;;;;;;;-3.44;89.40;101244.47;1722789;83;21127;-61
2023/01/12 12:02:02;;;;;;;38.75;12.88;;;;;;;-3.41;89.34;101241.61;1697281;83;21182;-60
2023/01/12 12:04:54;;;;;;;35.65;13.28;;;;;;;-3.42;89.21;101238.55;1723224;83;21627;-58
2023/01/12 12:07:51;;;;;;;34.67;13.00;;;;;;;-3.41;89.22;101233.09;1723288;83;21139;-61
2023/01/12 12:11:00;;;;;;;41.98;14.80;;;;;;;-3.43;89.07;101219.40;1636070;87;21264;-60
2023/01/12 12:13:55;;;;;;;41.63;14.58;;;;;;;-3.46;89.09;101220.44;1636250;88;21662;-61
2023/01/12 12:16:53;;;;;;;37.60;13.43;;;;;;;-3.51;89.06;101222.52;1636604;88;21206;-59
2023/01/12 12:20:09;;;;;;;41.35;15.18;;;;;;;-3.52;89.16;101223.00;1636221;88;21138;-57
2023/01/12 12:23:16;;;;;;;34.85;13.85;;;;;;;-3.56;89.07;101217.42;1636302;88;21146;-59
2023/01/12 12:25:55;;;;;;;47.40;14.98;;;;;;;-3.52;89.33;101218.98;1636245;88;21604;-60
2023/01/12 12:29:01;;;;;;;45.55;15.75;;;;;;;-3.44;89.60;101219.02;1675335;83;21177;-59
2023/01/12 12:31:49;;;;;;;48.33;15.53;;;;;;;-3.38;89.57;101223.54;1723615;83;21150;-58
2023/01/12 12:34:29;;;;;;;45.38;15.98;;;;;;;-3.36;89.43;101213.59;1691370;85;21660;-57
2023/01/12 12:37:05;;;;;;;47.67;16.23;;;;;;;-3.35;89.38;101219.34;1658250;86;21194;-61
2023/01/12 12:39:50;;;;;;;44.73;17.32;;;;;;;-3.35;89.29;101209.97;1649308;86;21147;-58
2023/01/12 12:45:53;;;;;;;50.52;15.45;;;;;;;-3.38;89.10;101214.64;1728056;83;21240;-59
2023/01/12 12:48:44;;;;;;;44.35;16.07;;;;;;;-3.40;89.02;101208.03;1725841;83;21566;-58
2023/01/12 12:51:19;;;;;;;50.33;16.27;;;;;;;-3.44;89.07;101210.50;1727969;83;21166;-58
2023/01/12 12:53:53;;;;;;;52.85;16.17;;;;;;;-3.44;89.11;101215.86;1727788;83;21615;-58
2023/01/12 12:56:27;;;;;;;52.80;16.32;;;;;;;-3.45;89.07;101221.30;1728182;83;21170;-59
2023/01/12 12:59:00;;;;;;;48.10;15.70;;;;;;;-3.47;89.15;101224.08;1728081;83;21150;-59
2023/01/12 13:01:35;;;;;;;52.15;16.55;;;;;;;-3.46;89.25;101225.80;1673604;83;21130;-59
2023/01/12 13:04:07;;;;;;;36.70;13.55;;;;;;;-3.45;89.34;101226.66;1727874;83;21182;-60
2023/01/12 13:06:46;;;;;;;45.73;15.10;;;;;;;-3.42;89.42;101225.14;1727942;83;21162;-60
2023/01/12 13:09:28;;;;;;;46.73;16.10;;;;;;;-3.42;89.34;101220.65;1727798;83;21158;-59
2023/01/12 13:12:04;;;;;;;46.58;14.40;;;;;;;-3.40;89.39;101218.75;1697053;83;21143;-60
2023/01/12 13:14:38;;;;;;;45.52;15.43;;;;;;;-3.36;89.37;101224.79;1727916;83;21581;-61
2023/01/12 13:17:26;;;;;;;47.30;15.48;;;;;;;-3.34;89.40;101218.87;1727779;83;21177;-59
2023/01/12 13:20:09;;;;;;;49.83;16.65;;;;;;;-3.33;89.25;101208.53;1727354;83;21150;-60
2023/01/12 13:22:49;;;;;;;48.17;15.65;;;;;;;-3.30;89.27;101220.41;1696246;83;21147;-60